Time;durP1;ratioP1;P1;durP2;ratioP2;P2;SDS_P1;SDS_P2;PMS_P1;PMS_P2;Temp;Humidity;BMP_temperature;BMP_pressure;BME280_temperature;BME280_humidity;BME280_pressure;Samples;Min_cycle;Max_cycle;Signal;HPM_P1;HPM_P2
2023/06/24 00:00:06;;;;;;;11.65;9.35;;;;;;;-144.30;69.28;84287.34;5043084;28;20200;-74
2023/06/24 00:02:35;;;;;;;10.00;9.15;;;;;;;-144.30;69.17;84289.31;5042822;28;20193;-74
2023/06/24 00:05:05;;;;;;;10.38;9.57;;;;;;;-144.30;69.14;84257.53;5044535;28;20200;-74
2023/06/24 00:07:32;;;;;;;10.43;9.45;;;;;;;-144.30;69.39;84319.13;5041908;28;20190;-74
2023/06/24 00:09:58;;;;;;;10.38;9.50;;;;;;;-144.30;69.43;84307.22;5041341;28;20193;-73
2023/06/24 00:12:26;;;;;;;10.32;9.60;;;;;;;-144.30;69.36;84344.97;5043677;28;20192;-73
2023/06/24 00:14:53;;;;;;;10.70;9.75;;;;;;;-144.30;68.96;84329.06;5044660;28;20201;-73
2023/06/24 00:17:20;;;;;;;9.85;8.93;;;;;;;-144.30;68.41;84323.13;5041668;28;20224;-73
2023/06/24 00:19:47;;;;;;;9.73;9.02;;;;;;;-144.30;68.10;84559.63;5041299;28;20741;-73
2023/06/24 00:22:15;;;;;;;10.38;9.50;;;;;;;-144.30;68.13;84352.91;5042546;28;20581;-73
2023/06/24 00:24:42;;;;;;;9.68;8.80;;;;;;;-144.30;68.30;84386.72;5042891;28;20196;-73
2023/06/24 00:27:09;;;;;;;19.15;9.60;;;;;;;-144.30;69.39;84378.75;5041223;28;20284;-73
2023/06/24 00:29:36;;;;;;;10.10;9.02;;;;;;;-144.30;69.22;84394.66;5042214;28;20243;-73
2023/06/24 00:32:03;;;;;;;10.63;9.05;;;;;;;-144.30;68.98;84396.66;5042979;28;20661;-72
2023/06/24 00:34:30;;;;;;;10.43;9.38;;;;;;;-144.30;69.20;84410.56;5042661;28;20203;-72
2023/06/24 00:36:57;;;;;;;9.73;8.88;;;;;;;-144.30;69.29;84434.41;5041632;28;20216;-74
2023/06/24 00:39:25;;;;;;;10.10;8.57;;;;;;;-144.30;69.61;84430.44;5039727;28;20197;-74
2023/06/24 00:41:53;;;;;;;9.35;8.57;;;;;;;-144.30;69.86;84418.50;5042409;28;20200;-74
2023/06/24 00:44:20;;;;;;;9.57;8.77;;;;;;;-144.30;70.05;84428.44;5042294;28;20669;-74
2023/06/24 00:46:48;;;;;;;9.18;8.40;;;;;;;-144.30;69.88;84406.59;5043213;28;20195;-74
2023/06/24 00:49:15;;;;;;;11.70;9.43;;;;;;;-144.30;69.55;84466.19;5041756;28;20283;-74
2023/06/24 00:51:47;;;;;;;11.27;9.48;;;;;;;-144.30;69.34;84299.25;5042015;28;20197;-74
2023/06/24 00:54:14;;;;;;;9.23;8.35;;;;;;;-144.30;69.27;84462.22;5042286;28;20197;-74
2023/06/24 00:56:43;;;;;;;14.00;8.63;;;;;;;-144.30;68.95;84390.69;5040035;28;20202;-73
2023/06/24 00:59:14;;;;;;;9.55;8.75;;;;;;;-144.30;68.56;84470.19;5041450;28;20216;-74
2023/06/24 01:01:41;;;;;;;9.35;8.57;;;;;;;-144.30;68.08;84450.31;5040869;28;20650;-73
2023/06/24 01:04:09;;;;;;;9.38;8.70;;;;;;;-144.30;68.01;84446.31;5043478;28;20217;-73
2023/06/24 01:06:43;;;;;;;9.25;8.55;;;;;;;-144.30;66.95;84454.28;5041157;28;20193;-73
2023/06/24 01:09:10;;;;;;;9.70;8.85;;;;;;;-144.30;67.14;84452.28;5041747;28;20254;-72
2023/06/24 01:11:37;;;;;;;10.27;8.65;;;;;;;-144.30;66.61;84438.38;5041577;28;20615;-74
2023/06/24 01:14:05;;;;;;;9.75;8.77;;;;;;;-144.30;66.06;84468.19;5040184;28;20196;-74
2023/06/24 01:16:40;;;;;;;8.73;7.93;;;;;;;-144.30;65.49;84505.94;5043328;28;20189;-74
2023/06/24 01:19:25;;;;;;;8.80;8.15;;;;;;;-144.30;64.98;84521.84;5040108;28;20624;-74
2023/06/24 01:22:11;;;;;;;8.27;7.50;;;;;;;-144.30;65.23;84527.81;5040710;28;20220;-74
2023/06/24 01:24:59;;;;;;;8.30;7.65;;;;;;;-144.30;64.26;84494.03;5041359;28;20293;-73
2023/06/24 01:27:44;;;;;;;8.00;7.30;;;;;;;-144.30;63.53;84533.78;5040429;28;20201;-73
2023/06/24 01:30:36;;;;;;;9.82;8.48;;;;;;;-144.30;63.68;84430.44;5045668;28;20254;-74
2023/06/24 01:33:09;;;;;;;16.08;8.20;;;;;;;-144.30;62.08;84515.88;5047836;28;20362;-73
2023/06/24 01:35:37;;;;;;;9.93;7.60;;;;;;;-144.30;62.57;84450.31;5042570;28;20196;-73
2023/06/24 01:38:11;;;;;;;8.85;8.05;;;;;;;-144.30;61.93;84547.69;5041901;28;20289;-73
2023/06/24 01:40:41;;;;;;;8.25;7.50;;;;;;;-144.30;62.16;84523.84;5040428;28;20201;-72
2023/06/24 01:43:10;;;;;;;8.73;8.00;;;;;;;-144.30;62.03;84569.53;5041857;28;20202;-73
2023/06/24 01:45:41;;;;;;;7.90;7.40;;;;;;;-144.30;61.78;84521.84;5040727;28;20212;-72
2023/06/24 01:48:14;;;;;;;8.60;7.90;;;;;;;-144.30;61.86;84515.88;5040228;28;20227;-72
2023/06/24 01:50:44;;;;;;;8.32;7.60;;;;;;;-144.30;61.58;84498.00;5039426;28;20201;-73
2023/06/24 01:53:14;;;;;;;11.95;7.95;;;;;;;-144.30;62.10;84509.94;5039001;28;20335;-74
2023/06/24 01:55:44;;;;;;;10.27;8.25;;;;;;;-144.30;62.27;84484.09;5043808;28;20204;-73
2023/06/24 01:58:14;;;;;;;7.85;7.20;;;;;;;-144.30;62.53;84575.50;5039505;28;20225;-74
2023/06/24 02:00:41;;;;;;;8.57;7.85;;;;;;;-144.30;62.69;84583.47;5039184;28;20197;-73
2023/06/24 02:03:11;;;;;;;8.98;7.50;;;;;;;-144.30;62.83;84549.69;5039129;28;20204;-73
2023/06/24 02:05:40;;;;;;;8.30;7.47;;;;;;;-144.30;62.96;84509.94;5036788;28;20197;-73
2023/06/24 02:08:10;;;;;;;8.82;8.00;;;;;;;-144.30;62.71;84368.81;5039496;28;20255;-74
2023/06/24 02:10:39;;;;;;;14.80;8.00;;;;;;;-144.30;63.34;84575.50;5040234;28;20221;-72
2023/06/24 02:13:08;;;;;;;10.32;8.38;;;;;;;-144.30;63.31;84573.53;5039097;28;20205;-74
2023/06/24 02:15:37;;;;;;;8.50;7.75;;;;;;;-144.30;63.35;84543.72;5040320;28;20685;-73
2023/06/24 02:18:05;;;;;;;9.05;8.25;;;;;;;-144.30;63.22;84569.53;5038180;28;20217;-72
2023/06/24 02:20:35;;;;;;;8.52;7.78;;;;;;;-144.30;63.75;84573.53;5040810;28;20203;-73
2023/06/24 02:23:04;;;;;;;8.18;7.47;;;;;;;-144.30;64.12;84599.34;5040979;28;20197;-72
2023/06/24 02:25:32;;;;;;;8.93;8.20;;;;;;;-144.30;63.71;84565.56;5040829;28;20258;-73
2023/06/24 02:28:00;;;;;;;8.80;8.00;;;;;;;-144.30;63.84;84599.34;5040429;28;20582;-73
2023/06/24 02:30:27;;;;;;;8.55;7.80;;;;;;;-144.30;63.78;84571.53;5038848;28;20219;-73
2023/06/24 02:32:54;;;;;;;7.57;7.00;;;;;;;-144.30;63.86;84585.44;5039376;28;20193;-73
2023/06/24 02:35:21;;;;;;;13.88;8.73;;;;;;;-144.30;63.90;84503.97;5038172;28;20192;-73
2023/06/24 02:37:49;;;;;;;9.13;8.02;;;;;;;-144.30;64.21;84623.22;5038491;28;20655;-72
2023/06/24 02:40:17;;;;;;;8.77;7.97;;;;;;;-144.30;64.54;84601.34;5040011;28;20660;-72
2023/06/24 02:42:43;;;;;;;8.27;7.68;;;;;;;-144.30;64.99;84595.38;5040358;28;20236;-73
2023/06/24 02:45:11;;;;;;;8.35;7.65;;;;;;;-144.30;64.86;84625.19;5039015;28;20223;-72
2023/06/24 02:47:39;;;;;;;11.18;8.15;;;;;;;-144.30;65.42;84653.03;5040995;28;20193;-71
2023/06/24 02:50:09;;;;;;;10.80;7.70;;;;;;;-144.30;65.16;84631.16;5044821;28;20315;-71
2023/06/24 02:52:37;;;;;;;9.20;8.05;;;;;;;-144.30;65.26;84649.03;5047083;28;20231;-71
2023/06/24 02:55:07;;;;;;;10.75;9.23;;;;;;;-144.30;65.23;84577.50;5040009;28;20660;-77
2023/06/24 02:57:36;;;;;;;9.05;8.15;;;;;;;-144.30;64.95;84615.25;5042571;28;20704;-77
2023/06/24 03:00:08;;;;;;;8.93;8.23;;;;;;;-144.30;65.09;84617.25;5039120;28;20197;-77
2023/06/24 03:02:36;;;;;;;8.80;8.20;;;;;;;-144.30;65.23;84666.94;5037519;28;20665;-77
2023/06/24 03:05:04;;;;;;;9.82;8.60;;;;;;;-144.30;64.87;84635.13;5042439;28;20683;-77
2023/06/24 03:07:34;;;;;;;8.88;8.00;;;;;;;-144.30;64.66;84660.97;5041922;28;20725;-76
2023/06/24 03:10:02;;;;;;;9.00;8.23;;;;;;;-144.30;64.53;84664.94;5042322;28;20197;-76
2023/06/24 03:12:31;;;;;;;9.07;8.48;;;;;;;-144.30;64.59;84627.19;5039981;28;20419;-77
2023/06/24 03:14:58;;;;;;;8.82;8.02;;;;;;;-144.30;64.55;84637.13;5045248;28;20199;-78
2023/06/24 03:17:25;;;;;;;8.75;8.00;;;;;;;-144.30;64.33;84637.13;5040099;28;20299;-77
2023/06/24 03:19:52;;;;;;;11.35;8.82;;;;;;;-144.30;64.31;84577.50;5041160;28;20196;-77
2023/06/24 03:22:19;;;;;;;10.75;8.10;;;;;;;-144.30;63.55;84525.81;5036880;28;20567;-77
2023/06/24 03:24:46;;;;;;;9.95;8.85;;;;;;;-144.30;63.77;84603.34;5040168;28;20201;-77
2023/06/24 03:27:13;;;;;;;8.90;8.13;;;;;;;-144.30;63.39;84486.06;5040469;28;20605;-74
2023/06/24 03:29:41;;;;;;;8.75;8.13;;;;;;;-144.30;63.33;84617.25;5034485;28;20197;-74
2023/06/24 03:32:09;;;;;;;8.77;8.07;;;;;;;-144.30;63.26;84629.19;5041813;28;20215;-75
2023/06/24 03:34:35;;;;;;;9.32;8.60;;;;;;;-144.30;62.42;84569.53;5038999;28;20260;-75
2023/06/24 03:37:04;;;;;;;9.48;8.68;;;;;;;-144.30;62.61;84571.53;5034882;28;20208;-77
2023/06/24 03:39:31;;;;;;;10.00;8.90;;;;;;;-144.30;61.77;84569.53;5037672;28;20791;-76
2023/06/24 03:41:58;;;;;;;9.52;8.63;;;;;;;-144.30;61.50;84559.63;5039298;28;20217;-76
2023/06/24 03:44:24;;;;;;;10.55;8.68;;;;;;;-144.30;61.20;84565.56;5042522;28;20263;-76
2023/06/24 03:46:53;;;;;;;10.15;9.05;;;;;;;-144.30;61.26;84529.81;5036845;28;20190;-75
2023/06/24 03:49:20;;;;;;;8.93;8.32;;;;;;;-144.30;61.87;84472.16;5037304;28;20193;-75
2023/06/24 03:51:47;;;;;;;9.23;8.43;;;;;;;-144.30;62.05;84561.59;5039943;28;20190;-76
2023/06/24 03:54:14;;;;;;;9.07;8.18;;;;;;;-144.30;60.26;84521.84;5039205;28;20200;-76
2023/06/24 03:56:41;;;;;;;9.50;8.80;;;;;;;-144.30;56.92;84366.84;5040624;28;20201;-77
2023/06/24 03:59:08;;;;;;;10.60;8.40;;;;;;;-144.30;54.70;84275.41;5039960;28;20304;-82
2023/06/24 04:01:36;;;;;;;9.13;8.18;;;;;;;-144.30;52.55;84136.31;5038749;28;20197;-77
2023/06/24 04:04:04;;;;;;;9.18;8.30;;;;;;;-144.30;48.88;83941.56;5040689;28;20197;-77
2023/06/24 04:06:31;;;;;;;9.20;8.30;;;;;;;-144.30;45.82;83748.81;5038289;28;20618;-74
2023/06/24 04:08:58;;;;;;;8.60;7.85;;;;;;;-144.30;44.74;83695.19;5039986;28;20660;-74
2023/06/24 04:11:25;;;;;;;9.13;8.32;;;;;;;-144.30;42.97;83579.94;5037077;28;20272;-74
2023/06/24 04:13:52;;;;;;;10.77;8.18;;;;;;;-144.30;40.77;83357.41;5037092;28;20199;-74
2023/06/24 04:16:19;;;;;;;8.05;7.45;;;;;;;-144.30;39.38;83232.25;5040308;28;20689;-75
2023/06/24 04:18:46;;;;;;;8.30;7.53;;;;;;;-144.30;38.58;83047.50;5052757;28;20731;-75
2023/06/24 04:21:15;;;;;;;8.55;7.57;;;;;;;-144.30;37.46;83101.13;5052990;28;20295;-75
2023/06/24 04:23:42;;;;;;;8.05;7.47;;;;;;;-144.30;36.98;83057.41;5052304;28;20250;-75
2023/06/24 04:26:09;;;;;;;8.55;7.95;;;;;;;-144.30;36.55;82817.06;5051714;28;20223;-75
2023/06/24 04:28:36;;;;;;;8.95;8.10;;;;;;;-144.30;36.73;83023.66;5052300;28;20196;-76
2023/06/24 04:31:03;;;;;;;9.25;7.53;;;;;;;-144.30;35.89;82777.31;5053923;28;20192;-74
2023/06/24 04:33:30;;;;;;;7.50;6.95;;;;;;;-144.30;34.81;82705.81;5042668;28;20725;-75
2023/06/24 04:35:58;;;;;;;8.10;7.55;;;;;;;-144.30;34.40;82749.50;5049609;28;20197;-75
2023/06/24 04:38:26;;;;;;;8.75;7.57;;;;;;;-144.30;34.28;82660.13;5043127;28;20615;-77
2023/06/24 04:40:53;;;;;;;12.00;8.07;;;;;;;-144.30;34.14;82638.28;5050094;28;20193;-77
2023/06/24 04:43:20;;;;;;;8.73;8.13;;;;;;;-144.30;34.35;82709.78;5047770;28;20215;-75
2023/06/24 04:45:47;;;;;;;9.00;8.35;;;;;;;-144.30;33.88;82588.63;5042868;28;20266;-77
2023/06/24 04:48:14;;;;;;;7.68;7.07;;;;;;;-144.30;33.09;82384.03;5046889;28;20207;-77
2023/06/24 04:50:41;;;;;;;7.95;7.43;;;;;;;-144.30;32.63;82340.34;5036019;28;20217;-76
2023/06/24 04:53:08;;;;;;;7.57;6.97;;;;;;;-144.30;33.34;82511.16;5047421;28;20255;-78
2023/06/24 04:55:36;;;;;;;7.88;7.05;;;;;;;-144.30;32.17;82264.88;5054040;28;20627;-77
2023/06/24 04:58:03;;;;;;;7.75;7.00;;;;;;;-144.30;31.83;82252.94;5053494;28;20676;-75
2023/06/24 05:00:36;;;;;;;7.60;7.00;;;;;;;-144.30;31.79;82229.09;5054653;28;20236;-77
2023/06/24 05:03:03;;;;;;;7.15;6.55;;;;;;;-144.30;31.03;82068.25;5052361;28;20197;-72
2023/06/24 05:05:30;;;;;;;8.00;7.47;;;;;;;-144.30;30.79;81996.75;5052576;28;20587;-73
2023/06/24 05:07:57;;;;;;;7.93;7.32;;;;;;;-144.30;31.47;82163.56;5052145;28;20266;-75
2023/06/24 05:10:24;;;;;;;8.48;7.30;;;;;;;-144.30;31.83;82340.34;5051635;28;20259;-74
2023/06/24 05:12:52;;;;;;;7.70;7.20;;;;;;;-144.30;31.71;82322.47;5051534;28;20193;-73
2023/06/24 05:15:19;;;;;;;7.95;7.22;;;;;;;-144.30;32.29;82376.09;5049328;28;20197;-74
2023/06/24 05:17:46;;;;;;;8.15;7.53;;;;;;;-144.30;31.96;82227.13;5040069;28;20666;-75
2023/06/24 05:20:13;;;;;;;7.72;7.10;;;;;;;-144.30;31.01;81994.75;5048315;28;20603;-73
2023/06/24 05:22:40;;;;;;;7.53;6.93;;;;;;;-144.30;30.56;81788.22;5050360;28;20208;-74
2023/06/24 05:25:07;;;;;;;7.90;7.13;;;;;;;-144.30;30.05;81615.47;5051516;28;20195;-74
2023/06/24 05:27:34;;;;;;;8.55;7.63;;;;;;;-144.30;29.78;81581.69;5049178;28;20197;-74
2023/06/24 05:30:03;;;;;;;8.13;7.60;;;;;;;-144.30;29.49;81563.81;5039506;28;20381;-73
2023/06/24 05:32:30;;;;;;;11.50;7.45;;;;;;;-144.30;29.79;81649.22;5041502;28;20200;-76
2023/06/24 05:34:56;;;;;;;11.93;7.32;;;;;;;-144.30;29.13;81482.41;5036234;28;20192;-76
2023/06/24 05:37:23;;;;;;;7.53;6.95;;;;;;;-144.30;28.63;81226.28;5035253;28;20205;-79
2023/06/24 05:39:50;;;;;;;7.63;6.53;;;;;;;-144.30;27.71;81101.19;5034027;28;20739;-77
2023/06/24 05:42:17;;;;;;;7.40;6.68;;;;;;;-144.30;28.11;81212.38;5044044;28;20207;-74
2023/06/24 05:44:44;;;;;;;7.05;6.50;;;;;;;-144.30;28.34;81363.28;5040933;28;20673;-78
2023/06/24 05:47:12;;;;;;;7.03;6.53;;;;;;;-144.30;28.56;81309.66;5046825;28;20195;-75
2023/06/24 05:49:39;;;;;;;8.70;6.97;;;;;;;-144.30;28.59;81256.06;5047418;28;20192;-77
2023/06/24 05:52:07;;;;;;;8.30;7.55;;;;;;;-144.30;28.53;81335.47;5046612;28;20191;-74
2023/06/24 05:54:34;;;;;;;8.38;7.78;;;;;;;-144.30;28.83;81440.72;5044777;28;20196;-74
2023/06/24 05:57:00;;;;;;;7.38;6.72;;;;;;;-144.30;29.05;81474.47;5050510;28;20204;-76
2023/06/24 05:59:27;;;;;;;7.55;6.90;;;;;;;-144.30;29.30;81450.66;5051705;28;20227;-76
2023/06/24 06:01:54;;;;;;;7.82;7.13;;;;;;;-144.30;29.04;81353.34;5038866;28;20684;-77
2023/06/24 06:04:23;;;;;;;8.00;7.40;;;;;;;-144.30;28.84;81383.13;5041400;28;20200;-75
2023/06/24 06:06:49;;;;;;;9.93;8.13;;;;;;;-144.30;29.13;81325.56;5039784;28;20204;-76
2023/06/24 06:09:16;;;;;;;7.80;7.30;;;;;;;-144.30;29.23;81484.41;5032333;28;20665;-75
2023/06/24 06:11:43;;;;;;;7.85;7.10;;;;;;;-144.30;29.31;81430.78;5033081;28;20612;-78
2023/06/24 06:14:10;;;;;;;7.95;7.35;;;;;;;-144.30;30.01;81518.16;5040517;28;20208;-77
2023/06/24 06:16:37;;;;;;;8.30;7.68;;;;;;;-144.30;30.16;81712.75;5041281;28;20591;-77
2023/06/24 06:19:04;;;;;;;7.55;7.00;;;;;;;-144.30;30.10;81712.75;5037497;28;20223;-77
2023/06/24 06:21:33;;;;;;;8.68;8.18;;;;;;;-144.30;29.97;81673.03;5045459;28;20195;-80
2023/06/24 06:24:00;;;;;;;9.02;8.30;;;;;;;-144.30;30.45;81667.09;5032579;28;20623;-76
2023/06/24 06:26:27;;;;;;;9.88;9.07;;;;;;;-144.30;30.72;81593.63;5031526;28;20201;-76
2023/06/24 06:28:54;;;;;;;9.23;8.35;;;;;;;-144.30;30.62;81651.19;5032513;28;20563;-75
2023/06/24 06:31:22;;;;;;;9.95;8.43;;;;;;;-144.30;30.98;81788.22;5031781;28;20292;-76
2023/06/24 06:33:49;;;;;;;11.18;9.27;;;;;;;-144.30;31.10;81839.84;5032735;28;20204;-76
2023/06/24 06:36:16;;;;;;;10.65;9.63;;;;;;;-144.30;31.69;81974.91;5031152;28;20213;-75
2023/06/24 06:38:44;;;;;;;9.65;8.63;;;;;;;-144.30;31.79;81955.03;5031286;28;20233;-75
2023/06/24 06:41:11;;;;;;;9.90;8.80;;;;;;;-144.30;31.50;81851.78;5032273;28;20197;-74
2023/06/24 06:43:39;;;;;;;9.20;8.60;;;;;;;-144.30;31.32;81788.22;5031721;28;20212;-76
2023/06/24 06:46:05;;;;;;;9.88;8.05;;;;;;;-144.30;31.49;82014.63;5030645;28;20193;-75
2023/06/24 06:48:32;;;;;;;8.88;8.07;;;;;;;-144.30;31.68;82048.38;5031856;28;20200;-75
2023/06/24 06:50:59;;;;;;;9.43;7.80;;;;;;;-144.30;31.71;82036.47;5031739;28;20765;-74
2023/06/24 06:53:26;;;;;;;8.85;8.10;;;;;;;-144.30;31.81;82034.47;5033028;28;20211;-75
2023/06/24 06:55:54;;;;;;;8.88;8.07;;;;;;;-144.30;31.88;82062.28;5030936;28;20201;-76
2023/06/24 06:58:21;;;;;;;9.80;8.88;;;;;;;-144.30;31.77;82074.19;5031101;28;20599;-75
2023/06/24 07:00:48;;;;;;;8.75;8.07;;;;;;;-144.30;31.88;82042.41;5030437;28;20610;-74
2023/06/24 07:03:15;;;;;;;9.55;8.73;;;;;;;-144.30;31.50;82042.41;5031011;28;20657;-75
2023/06/24 07:05:42;;;;;;;11.57;9.02;;;;;;;-144.30;31.61;81970.94;5030595;28;20240;-76
2023/06/24 07:08:09;;;;;;;9.52;8.65;;;;;;;-144.30;32.02;82028.53;5030934;28;20197;-76
2023/06/24 07:10:36;;;;;;;9.68;8.73;;;;;;;-144.30;31.74;81978.88;5030411;28;20343;-75
2023/06/24 07:13:04;;;;;;;11.82;10.73;;;;;;;-144.30;32.10;82111.94;5030569;28;20201;-77
2023/06/24 07:15:31;;;;;;;10.13;9.15;;;;;;;-144.30;32.78;82213.22;5031464;28;20204;-76
2023/06/24 07:17:58;;;;;;;10.35;9.55;;;;;;;-144.30;32.68;82111.94;5030742;28;20213;-79
2023/06/24 07:20:25;;;;;;;13.52;9.52;;;;;;;-144.30;32.65;82159.59;5030069;28;20221;-75
2023/06/24 07:23:01;;;;;;;13.00;9.40;;;;;;;-144.30;32.65;82141.72;5029004;28;20197;-76
2023/06/24 07:25:28;;;;;;;11.43;10.32;;;;;;;-144.30;32.38;82038.44;5031128;28;20208;-76
2023/06/24 07:27:55;;;;;;;9.77;8.82;;;;;;;-144.30;32.15;82080.16;5028656;28;20197;-76
2023/06/24 07:30:23;;;;;;;9.38;8.40;;;;;;;-144.30;31.79;81966.94;5030339;28;20197;-80
2023/06/24 07:32:50;;;;;;;9.82;8.95;;;;;;;-144.30;31.63;82096.03;5032030;28;20197;-80
2023/06/24 07:35:18;;;;;;;12.43;8.98;;;;;;;-144.30;31.53;81784.25;5033727;28;20201;-79
2023/06/24 07:37:45;;;;;;;11.70;10.43;;;;;;;-144.30;31.43;81690.91;5031828;28;20205;-71
2023/06/24 07:40:13;;;;;;;10.23;9.32;;;;;;;-144.30;31.14;81694.88;5029988;28;20225;-72
2023/06/24 07:42:39;;;;;;;13.48;8.98;;;;;;;-144.30;31.12;81675.03;5030569;28;20613;-73
2023/06/24 07:45:07;;;;;;;10.05;9.13;;;;;;;-144.30;31.04;81714.75;5030998;28;20204;-76
2023/06/24 07:47:35;;;;;;;9.52;8.55;;;;;;;-144.30;30.89;81692.91;5031255;28;20577;-73
2023/06/24 07:50:03;;;;;;;9.30;8.35;;;;;;;-144.30;31.20;81798.16;5034810;28;20688;-73
2023/06/24 07:52:29;;;;;;;10.10;8.45;;;;;;;-144.30;31.45;81897.44;5034425;28;20207;-72
2023/06/24 07:54:56;;;;;;;9.23;8.38;;;;;;;-144.30;31.47;82006.69;5034348;28;20205;-72
2023/06/24 07:57:23;;;;;;;8.70;8.07;;;;;;;-144.30;31.37;81837.88;5034248;28;20665;-73
2023/06/24 07:59:50;;;;;;;9.00;8.18;;;;;;;-144.30;31.06;81863.69;5035075;28;20231;-75
2023/06/24 08:02:17;;;;;;;9.93;8.35;;;;;;;-144.30;31.02;81784.25;5035835;28;20578;-81
2023/06/24 08:04:46;;;;;;;8.45;7.72;;;;;;;-144.30;31.67;81750.50;5035805;28;20195;-77
2023/06/24 08:07:13;;;;;;;9.15;8.43;;;;;;;-144.30;30.96;81734.59;5035863;28;20204;-75
2023/06/24 08:09:40;;;;;;;8.48;7.88;;;;;;;-144.30;30.68;81613.47;5034601;28;20197;-75
2023/06/24 08:12:08;;;;;;;8.63;8.02;;;;;;;-144.30;30.19;81478.44;5035083;28;20723;-74
2023/06/24 08:14:35;;;;;;;8.90;8.27;;;;;;;-144.30;30.44;81522.13;5036156;28;20251;-81
2023/06/24 08:17:02;;;;;;;8.98;8.10;;;;;;;-144.30;31.54;81885.53;5033551;28;20552;-75
2023/06/24 08:19:28;;;;;;;9.07;8.32;;;;;;;-144.30;31.66;82221.16;5039206;28;20303;-76
2023/06/24 08:21:57;;;;;;;9.38;8.60;;;;;;;-144.30;30.85;81959.00;5055768;28;20666;-73
2023/06/24 08:24:24;;;;;;;8.60;7.85;;;;;;;-144.30;30.86;81538.00;5054726;28;20196;-75
2023/06/24 08:26:50;;;;;;;8.80;8.20;;;;;;;-144.30;29.94;81520.13;5051935;28;20197;-73
2023/06/24 08:29:17;;;;;;;8.35;7.65;;;;;;;-144.30;30.35;81369.22;5053372;28;20606;-74
2023/06/24 08:31:44;;;;;;;10.48;7.97;;;;;;;-144.30;29.73;81371.22;5052629;28;20192;-73
2023/06/24 08:34:11;;;;;;;8.98;8.32;;;;;;;-144.30;30.50;81559.84;5052369;28;20192;-74
2023/06/24 08:36:38;;;;;;;9.60;8.35;;;;;;;-144.30;30.06;81444.69;5052747;28;20664;-74
2023/06/24 08:39:06;;;;;;;9.18;8.35;;;;;;;-144.30;30.68;81504.25;5052224;28;20203;-72
2023/06/24 08:41:33;;;;;;;9.65;8.75;;;;;;;-144.30;30.64;81565.81;5052615;28;20207;-74
2023/06/24 08:44:00;;;;;;;9.20;8.40;;;;;;;-144.30;31.18;81716.72;5052649;28;20193;-73
2023/06/24 08:46:29;;;;;;;9.82;8.85;;;;;;;-144.30;31.52;81835.88;5052561;28;20300;-74
2023/06/24 08:49:02;;;;;;;9.63;8.50;;;;;;;-144.30;31.73;81849.78;5052356;28;20631;-74
2023/06/24 08:51:34;;;;;;;9.70;8.57;;;;;;;-144.30;31.38;81744.53;5052211;28;20204;-74
2023/06/24 08:54:02;;;;;;;10.90;9.18;;;;;;;-144.30;31.69;81820.00;5052100;28;20296;-74
2023/06/24 08:56:30;;;;;;;14.00;9.30;;;;;;;-144.30;31.94;81820.00;5052202;28;20589;-74
2023/06/24 08:58:57;;;;;;;9.40;8.70;;;;;;;-144.30;31.95;81915.31;5052092;28;20201;-74
2023/06/24 09:01:25;;;;;;;8.73;7.97;;;;;;;-144.30;31.84;81885.53;5051471;28;20228;-76
2023/06/24 09:03:52;;;;;;;9.50;8.80;;;;;;;-144.30;32.12;81863.69;5051933;28;20196;-75
2023/06/24 09:06:19;;;;;;;9.75;9.05;;;;;;;-144.30;32.30;81966.94;5052224;28;20205;-76
2023/06/24 09:08:54;;;;;;;9.60;8.80;;;;;;;-144.30;31.98;81887.53;5052138;28;20224;-76
2023/06/24 09:11:23;;;;;;;8.85;8.25;;;;;;;-144.30;32.09;81887.53;5051769;28;20281;-75
2023/06/24 09:13:55;;;;;;;8.40;7.80;;;;;;;-144.30;31.81;81921.28;5051807;28;20197;-75
2023/06/24 09:16:22;;;;;;;8.80;8.25;;;;;;;-144.30;31.80;81901.41;5052301;28;20732;-74
2023/06/24 09:18:50;;;;;;;9.50;8.80;;;;;;;-144.30;31.78;81911.34;5051748;28;20224;-76
2023/06/24 09:21:23;;;;;;;9.38;8.57;;;;;;;-144.30;31.69;81919.28;5051878;28;20220;-74
2023/06/24 09:23:53;;;;;;;9.05;8.35;;;;;;;-144.30;31.70;81847.78;5051633;28;20261;-75
2023/06/24 09:26:20;;;;;;;13.10;10.38;;;;;;;-144.30;31.74;81937.16;5051535;28;20200;-73
2023/06/24 09:28:49;;;;;;;8.70;8.05;;;;;;;-144.30;31.76;81951.06;5042995;28;20196;-76
2023/06/24 09:31:19;;;;;;;12.20;8.82;;;;;;;-144.30;31.98;81873.63;5042698;28;20217;-77
2023/06/24 09:33:46;;;;;;;8.95;8.35;;;;;;;-144.30;32.25;81974.91;5042235;28;20588;-76
2023/06/24 09:36:14;;;;;;;9.02;8.38;;;;;;;-144.30;32.27;81931.22;5041701;28;20192;-77
2023/06/24 09:38:44;;;;;;;9.68;8.68;;;;;;;-144.30;32.64;82082.13;5043892;28;20201;-77
2023/06/24 09:41:12;;;;;;;11.63;8.60;;;;;;;-144.30;32.70;81863.69;5041454;28;20291;-76
2023/06/24 09:43:40;;;;;;;9.10;8.30;;;;;;;-144.30;32.74;81986.81;5043510;28;20196;-77
2023/06/24 09:46:08;;;;;;;9.30;8.55;;;;;;;-144.30;32.75;81929.22;5041921;28;20200;-78
2023/06/24 09:48:36;;;;;;;9.45;8.52;;;;;;;-144.30;32.49;81798.16;5043797;28;20227;-77
2023/06/24 09:51:05;;;;;;;22.65;8.07;;;;;;;-144.30;32.70;82447.59;5040735;28;20200;-77
2023/06/24 09:53:34;;;;;;;8.80;7.93;;;;;;;-144.30;32.73;82016.59;5042925;28;20288;-77
2023/06/24 09:56:02;;;;;;;10.07;8.93;;;;;;;-144.30;32.92;81982.84;5042667;28;20193;-76
2023/06/24 09:58:32;;;;;;;9.20;8.15;;;;;;;-144.30;32.46;82046.41;5040877;28;20193;-76
2023/06/24 10:01:03;;;;;;;8.93;8.32;;;;;;;-144.30;32.83;82163.56;5046442;28;20212;-74
2023/06/24 10:03:32;;;;;;;10.95;8.20;;;;;;;-144.30;33.37;82151.66;5045516;28;20200;-74
2023/06/24 10:06:02;;;;;;;8.65;7.93;;;;;;;-144.30;33.47;82177.47;5045033;28;20195;-74
2023/06/24 10:08:31;;;;;;;8.68;8.07;;;;;;;-144.30;33.55;82096.03;5042952;28;20759;-74
2023/06/24 10:10:58;;;;;;;9.13;8.35;;;;;;;-144.30;33.56;82098.03;5038625;28;20613;-74
2023/06/24 10:13:27;;;;;;;9.18;8.55;;;;;;;-144.30;33.46;82088.09;5044379;28;20181;-77
2023/06/24 10:15:55;;;;;;;8.20;7.68;;;;;;;-144.30;33.58;82153.63;5046403;28;20239;-74
2023/06/24 10:18:36;;;;;;;8.00;7.32;;;;;;;-144.30;33.79;82153.63;5040449;28;20219;-74
2023/06/24 10:21:05;;;;;;;9.07;8.27;;;;;;;-144.30;34.00;82155.63;5038868;28;20221;-73
2023/06/24 10:23:34;;;;;;;9.73;8.60;;;;;;;-144.30;33.40;82211.25;5038703;28;20236;-74
2023/06/24 10:26:06;;;;;;;7.93;7.53;;;;;;;-144.30;33.40;82286.72;5042509;28;20215;-77
2023/06/24 10:29:07;;;;;;;7.28;6.68;;;;;;;-144.30;33.60;82366.16;5044658;28;20193;-73
2023/06/24 10:31:52;;;;;;;7.75;7.30;;;;;;;-144.30;33.53;82382.03;5045075;28;20189;-74
2023/06/24 10:34:28;;;;;;;8.02;7.43;;;;;;;-144.30;33.29;82362.19;5039861;28;20288;-72
2023/06/24 10:36:57;;;;;;;7.93;7.30;;;;;;;-144.30;33.21;82399.91;5042186;28;20184;-74
2023/06/24 10:39:49;;;;;;;8.88;8.07;;;;;;;-144.30;33.92;82495.25;5040017;28;20189;-74
2023/06/24 10:42:33;;;;;;;8.75;8.10;;;;;;;-144.30;34.42;82413.81;5039425;28;20565;-74
2023/06/24 10:45:01;;;;;;;9.57;8.77;;;;;;;-144.30;34.33;82429.72;5041565;28;20846;-74
2023/06/24 10:47:29;;;;;;;7.80;7.30;;;;;;;-144.30;33.44;82399.91;5040934;28;20214;-73
2023/06/24 10:49:56;;;;;;;8.75;8.05;;;;;;;-144.30;33.24;82429.72;5039586;28;20192;-74
2023/06/24 10:52:25;;;;;;;8.75;8.18;;;;;;;-144.30;34.04;82435.66;5038268;28;20192;-74
2023/06/24 10:54:54;;;;;;;9.07;8.43;;;;;;;-144.30;34.27;82457.53;5039065;28;20193;-74
2023/06/24 10:57:26;;;;;;;8.90;8.05;;;;;;;-144.30;34.23;82248.97;5040343;28;20296;-74
2023/06/24 10:59:54;;;;;;;8.57;8.10;;;;;;;-144.30;34.73;82409.84;5041997;28;20686;-73
2023/06/24 11:02:22;;;;;;;9.60;8.77;;;;;;;-144.30;34.70;82370.13;5040404;28;20593;-74
2023/06/24 11:04:50;;;;;;;8.77;8.27;;;;;;;-144.30;34.56;82417.78;5039007;28;20211;-75
2023/06/24 11:07:19;;;;;;;9.32;8.65;;;;;;;-144.30;34.42;82451.56;5045219;28;20201;-74
2023/06/24 11:09:51;;;;;;;9.77;9.18;;;;;;;-144.30;34.45;82395.94;5043280;28;20192;-74
2023/06/24 11:12:18;;;;;;;11.45;9.63;;;;;;;-144.30;34.88;82403.91;5039432;28;20227;-74
2023/06/24 11:14:46;;;;;;;12.15;10.00;;;;;;;-144.30;35.13;82324.44;5046818;28;20207;-74
2023/06/24 11:17:13;;;;;;;10.07;9.27;;;;;;;-144.30;35.17;82435.66;5042031;28;20199;-76
2023/06/24 11:19:40;;;;;;;10.05;9.18;;;;;;;-144.30;35.83;82443.63;5041210;28;20195;-76